Flight Track Log - Related Links

Times and Time Zones

All times are in EST time to prevent confusion due to time zone crossing. See the SIA825 flight status page for this flight to view local times or setup timezone preferences in your user account.

Time Position Orientation Groundspeed Altitude Reporting Facility
EST Latitude Longitude Course Direction KTS MPH feet Rate Location/Type
Wed 11:48:00 AM 30.8563 121.5764 213° Southwest  Level Estimated
Wed 11:49:00 AM 30.7608 121.5047 213° Southwest  Level Estimated
Wed 11:50:00 AM 30.6651 121.4331 213° Southwest  Level Estimated
Wed 11:51:00 AM 30.5695 121.3617 213° Southwest  Level Estimated
Wed 11:52:00 AM 30.4738 121.2904 213° Southwest  Level Estimated
Wed 11:53:00 AM 30.3781 121.2193 213° Southwest  Level Estimated
Wed 11:54:00 AM 30.2823 121.1483 213° Southwest  Level Estimated
Wed 11:55:00 AM 30.1865 121.0774 213° Southwest  Level Estimated
Wed 11:56:00 AM 30.0907 121.0067 213° Southwest  Level Estimated
Wed 11:57:00 AM 29.9948 120.9361 213° Southwest  Level Estimated
Wed 11:58:00 AM 29.8989 120.8657 212° Southwest  Level Estimated
Wed 11:59:00 AM 29.8030 120.7953 212° Southwest  Level Estimated
Wed 12:00:00 PM 29.7070 120.7252 212° Southwest  Level Estimated
Wed 12:01:00 PM 29.6110 120.6551 212° Southwest  Level Estimated
Wed 12:02:00 PM 29.5149 120.5852 212° Southwest  Level Estimated
Wed 12:03:00 PM 29.4188 120.5154 212° Southwest  Level Estimated
Wed 12:04:00 PM 29.3227 120.4458 212° Southwest  Level Estimated
Wed 12:05:00 PM 29.2265 120.3763 212° Southwest  Level Estimated
Wed 12:06:00 PM 29.1303 120.3069 212° Southwest  Level Estimated
Wed 12:07:00 PM 29.0340 120.2376 212° Southwest  Level Estimated
Wed 12:08:00 PM 28.9378 120.1685 212° Southwest  Level Estimated
Wed 12:09:00 PM 28.8414 120.0995 212° Southwest  Level Estimated
Wed 12:10:00 PM 28.7451 120.0306 212° Southwest  Level Estimated
Wed 12:11:00 PM 28.6487 119.9619 212° Southwest  Level Estimated
Wed 12:12:00 PM 28.5523 119.8932 212° Southwest  Level Estimated
Wed 12:13:00 PM 28.4559 119.8248 212° Southwest  Level Estimated
Wed 12:14:00 PM 28.3594 119.7564 212° Southwest  Level Estimated
Wed 12:15:00 PM 28.2628 119.6881 212° Southwest  Level Estimated
Wed 12:16:00 PM 28.1663 119.6200 212° Southwest  Level Estimated
Wed 12:17:00 PM 28.0697 119.5520 212° Southwest  Level Estimated
Wed 12:18:00 PM 27.9731 119.4841 212° Southwest  Level Estimated
Wed 12:19:00 PM 27.8764 119.4164 212° Southwest  Level Estimated
Wed 12:20:00 PM 27.7797 119.3488 212° Southwest  Level Estimated
Wed 12:21:00 PM 27.6830 119.2812 212° Southwest  Level Estimated
Wed 12:22:00 PM 27.5863 119.2139 212° Southwest  Level Estimated
Wed 12:23:00 PM 27.4895 119.1466 212° Southwest  Level Estimated
Wed 12:24:00 PM 27.3927 119.0794 212° Southwest  Level Estimated
Wed 12:25:00 PM 27.2958 119.0124 212° Southwest  Level Estimated
Wed 12:26:00 PM 27.1989 118.9455 212° Southwest  Level Estimated
Wed 12:27:00 PM 27.1020 118.8786 212° Southwest  Level Estimated
Wed 12:28:00 PM 27.0051 118.8120 212° Southwest  Level Estimated
Wed 12:29:00 PM 26.9081 118.7454 211° Southwest  Level Estimated
Wed 12:30:00 PM 26.8111 118.6789 211° Southwest  Level Estimated
Wed 12:31:00 PM 26.7141 118.6126 211° Southwest  Level Estimated
Wed 12:32:00 PM 26.6170 118.5463 211° Southwest  Level Estimated
Wed 12:33:00 PM 26.5199 118.4802 211° Southwest  Level Estimated
Wed 12:34:00 PM 26.4228 118.4142 211° Southwest  Level Estimated
Wed 12:35:00 PM 26.3256 118.3483 211° Southwest  Level Estimated
Wed 12:36:00 PM 26.2284 118.2825 211° Southwest  Level Estimated
Wed 12:37:00 PM 26.1312 118.2168 211° Southwest  Level Estimated
Wed 12:38:00 PM 26.0339 118.1513 211° Southwest  Level Estimated
Wed 12:39:00 PM 25.9366 118.0858 211° Southwest  Level Estimated
Wed 12:40:00 PM 25.8393 118.0204 211° Southwest  Level Estimated
Wed 12:41:00 PM 25.7420 117.9552 211° Southwest  Level Estimated
Wed 12:42:00 PM 25.6446 117.8901 211° Southwest  Level Estimated
Wed 12:43:00 PM 25.5472 117.8250 211° Southwest  Level Estimated
Wed 12:44:00 PM 25.4498 117.7601 211° Southwest  Level Estimated
Wed 12:45:00 PM 25.3524 117.6953 211° Southwest  Level Estimated
Wed 12:46:00 PM 25.2549 117.6306 211° Southwest  Level Estimated
Wed 12:47:00 PM 25.1574 117.5659 211° Southwest  Level Estimated
Wed 12:48:00 PM 25.0598 117.5014 211° Southwest  Level Estimated
Wed 12:49:00 PM 24.9623 117.4370 211° Southwest  Level Estimated
Wed 12:50:00 PM 24.8647 117.3727 211° Southwest  Level Estimated
Wed 12:51:00 PM 24.7670 117.3085 211° Southwest  Level Estimated
Wed 12:52:00 PM 24.6694 117.2444 211° Southwest  Level Estimated
Wed 12:53:00 PM 24.5717 117.1804 211° Southwest  Level Estimated
Wed 12:54:00 PM 24.4740 117.1165 211° Southwest  Level Estimated
Wed 12:55:00 PM 24.3763 117.0527 211° Southwest  Level Estimated
Wed 12:56:00 PM 24.2785 116.9890 211° Southwest  Level Estimated
Wed 12:57:00 PM 24.1808 116.9254 211° Southwest  Level Estimated
Wed 12:58:00 PM 24.0830 116.8619 211° Southwest  Level Estimated
Wed 12:59:00 PM 23.9851 116.7985 211° Southwest  Level Estimated
Wed 01:00:00 PM 23.8873 116.7352 211° Southwest  Level Estimated
Wed 01:01:00 PM 23.7894 116.6719 211° Southwest  Level Estimated
Wed 01:02:00 PM 23.6915 116.6088 211° Southwest  Level Estimated
Wed 01:03:00 PM 23.5935 116.5458 211° Southwest  Level Estimated
Wed 01:04:00 PM 23.4956 116.4828 211° Southwest  Level Estimated
Wed 01:05:00 PM 23.3976 116.4200 210° Southwest  Level Estimated
Wed 01:06:00 PM 23.2996 116.3572 210° Southwest  Level Estimated
Wed 01:07:00 PM 23.2015 116.2946 210° Southwest  Level Estimated
Wed 01:08:00 PM 23.1035 116.2320 210° Southwest  Level Estimated
Wed 01:09:00 PM 23.0054 116.1695 210° Southwest  Level Estimated
Wed 01:10:00 PM 22.9073 116.1071 210° Southwest  Level Estimated
Wed 01:11:00 PM 22.8091 116.0449 210° Southwest  Level Estimated
Wed 01:12:00 PM 22.7110 115.9826 210° Southwest  Level Estimated
Wed 01:13:00 PM 22.6128 115.9205 210° Southwest  Level Estimated
Wed 01:14:00 PM 22.5146 115.8585 210° Southwest  Level Estimated
Wed 01:15:00 PM 22.4163 115.7965 210° Southwest  Level Estimated
Wed 01:16:00 PM 22.3181 115.7347 210° Southwest  Level Estimated
Wed 01:17:00 PM 22.2198 115.6729 210° Southwest  Level Estimated
Wed 01:18:00 PM 22.1215 115.6113 210° Southwest  Level Estimated
Wed 01:19:00 PM 22.0232 115.5497 210° Southwest  Level Estimated
Wed 01:20:00 PM 21.9248 115.4882 210° Southwest  Level Estimated
Wed 01:21:00 PM 21.8265 115.4267 210° Southwest  Level Estimated
Wed 01:22:00 PM 21.7281 115.3654 210° Southwest  Level Estimated
Wed 01:23:00 PM 21.6296 115.3042 210° Southwest  Level Estimated
Wed 01:24:00 PM 21.5312 115.2430 210° Southwest  Level Estimated
Wed 01:25:00 PM 21.4327 115.1819 210° Southwest  Level Estimated
Wed 01:26:00 PM 21.3343 115.1209 210° Southwest  Level Estimated
Wed 01:27:00 PM 21.2358 115.0600 210° Southwest  Level Estimated
Wed 01:28:00 PM 21.1372 114.9991 210° Southwest  Level Estimated
Wed 01:29:00 PM 21.0387 114.9384 210° Southwest  Level Estimated
Wed 01:30:00 PM 20.9401 114.8777 210° Southwest  Level Estimated
Wed 01:31:00 PM 20.8415 114.8171 210° Southwest  Level Estimated
Wed 01:32:00 PM 20.7429 114.7566 210° Southwest  Level Estimated
Wed 01:33:00 PM 20.6443 114.6961 210° Southwest  Level Estimated
Wed 01:34:00 PM 20.5456 114.6358 210° Southwest  Level Estimated
Wed 01:35:00 PM 20.4469 114.5755 210° Southwest  Level Estimated
Wed 01:36:00 PM 20.3482 114.5153 210° Southwest  Level Estimated
Wed 01:37:00 PM 20.2495 114.4551 210° Southwest  Level Estimated
Wed 01:38:00 PM 20.1508 114.3951 210° Southwest  Level Estimated
Wed 01:39:00 PM 20.0520 114.3351 210° Southwest  Level Estimated
Wed 01:40:00 PM 19.9532 114.2752 210° Southwest  Level Estimated
Wed 01:41:00 PM 19.8544 114.2154 210° Southwest  Level Estimated
Wed 01:42:00 PM 19.7556 114.1556 210° Southwest  Level Estimated
Wed 01:43:00 PM 19.6568 114.0959 210° Southwest  Level Estimated
Wed 01:44:00 PM 19.5579 114.0363 210° Southwest  Level Estimated
Wed 01:45:00 PM 19.4590 113.9768 210° Southwest  Level Estimated
Wed 01:46:00 PM 19.3601 113.9173 210° Southwest  Level Estimated
Wed 01:47:00 PM 19.2612 113.8579 210° Southwest  Level Estimated
Wed 01:48:00 PM 19.1623 113.7986 210° Southwest  Level Estimated
Wed 01:49:00 PM 19.0633 113.7394 210° Southwest  Level Estimated
Wed 01:50:00 PM 18.9643 113.6802 209° Southwest  Level Estimated
Wed 01:51:00 PM 18.8654 113.6211 209° Southwest  Level Estimated
Wed 01:52:00 PM 18.7663 113.5620 209° Southwest  Level Estimated
Wed 01:53:00 PM 18.6673 113.5031 209° Southwest  Level Estimated
Wed 01:54:00 PM 18.5683 113.4442 209° Southwest  Level Estimated
Wed 01:55:00 PM 18.4692 113.3853 209° Southwest  Level Estimated
Wed 01:56:00 PM 18.3701 113.3266 209° Southwest  Level Estimated
Wed 01:57:00 PM 18.2710 113.2679 209° Southwest  Level Estimated
Wed 01:58:00 PM 18.1719 113.2093 209° Southwest  Level Estimated
Wed 01:59:00 PM 18.0728 113.1507 209° Southwest  Level Estimated
Wed 02:00:00 PM 17.9736 113.0922 209° Southwest  Level Estimated
Wed 02:01:00 PM 17.8744 113.0338 209° Southwest  Level Estimated
Wed 02:02:00 PM 17.7752 112.9754 209° Southwest  Level Estimated
Wed 02:03:00 PM 17.6760 112.9171 209° Southwest  Level Estimated
Wed 02:04:00 PM 17.5768 112.8589 209° Southwest  Level Estimated
Wed 02:05:00 PM 17.4776 112.8007 209° Southwest  Level Estimated
Wed 02:06:00 PM 17.3783 112.7426 209° Southwest  Level Estimated
Wed 02:07:00 PM 17.2790 112.6846 209° Southwest  Level Estimated
Wed 02:08:00 PM 17.1797 112.6266 209° Southwest  Level Estimated
Wed 02:09:00 PM 17.0804 112.5687 209° Southwest  Level Estimated
Wed 02:10:00 PM 16.9811 112.5108 209° Southwest  Level Estimated
Wed 02:11:00 PM 16.8818 112.4530 209° Southwest  Level Estimated
Wed 02:12:00 PM 16.7824 112.3953 209° Southwest  Level Estimated
Wed 02:13:00 PM 16.6830 112.3376 209° Southwest  Level Estimated
Wed 02:14:00 PM 16.5836 112.2800 209° Southwest  Level Estimated
Wed 02:15:00 PM 16.4842 112.2224 209° Southwest  Level Estimated
Wed 02:16:00 PM 16.3848 112.1649 209° Southwest  Level Estimated
Wed 02:17:00 PM 16.2854 112.1075 209° Southwest  Level Estimated
Wed 02:18:00 PM 16.1859 112.0501 209° Southwest  Level Estimated
Wed 02:19:00 PM 16.0865 111.9928 209° Southwest  Level Estimated
Wed 02:20:00 PM 15.9870 111.9355 209° Southwest  Level Estimated
Wed 02:21:00 PM 15.8875 111.8783 209° Southwest  Level Estimated
Wed 02:22:00 PM 15.7880 111.8211 209° Southwest  Level Estimated
Wed 02:23:00 PM 15.6884 111.7640 209° Southwest  Level Estimated
Wed 02:24:00 PM 15.5889 111.7070 209° Southwest  Level Estimated
Wed 02:25:00 PM 15.4893 111.6500 209° Southwest  Level Estimated
Wed 02:26:00 PM 15.3898 111.5931 209° Southwest  Level Estimated
Wed 02:27:00 PM 15.2902 111.5362 209° Southwest  Level Estimated
Wed 02:28:00 PM 15.1906 111.4794 209° Southwest  Level Estimated
Wed 02:29:00 PM 15.0910 111.4226 209° Southwest  Level Estimated
Wed 02:30:00 PM 14.9913 111.3659 209° Southwest  Level Estimated
Wed 02:31:00 PM 14.8917 111.3092 209° Southwest  Level Estimated
Wed 02:32:00 PM 14.7920 111.2526 209° Southwest  Level Estimated
Wed 02:33:00 PM 14.6924 111.1961 209° Southwest  Level Estimated
Wed 02:34:00 PM 14.5927 111.1396 209° Southwest  Level Estimated
Wed 02:35:00 PM 14.4930 111.0831 209° Southwest  Level Estimated
Wed 02:36:00 PM 14.3933 111.0267 209° Southwest  Level Estimated
Wed 02:37:00 PM 14.2935 110.9704 209° Southwest  Level Estimated
Wed 02:38:00 PM 14.1938 110.9141 209° Southwest  Level Estimated
Wed 02:39:00 PM 14.0941 110.8578 209° Southwest  Level Estimated
Wed 02:40:00 PM 13.9943 110.8016 209° Southwest  Level Estimated
Wed 02:41:00 PM 13.8945 110.7454 209° Southwest  Level Estimated
Wed 02:42:00 PM 13.7947 110.6893 209° Southwest  Level Estimated
Wed 02:43:00 PM 13.6949 110.6333 209° Southwest  Level Estimated
Wed 02:44:00 PM 13.5951 110.5773 209° Southwest  Level Estimated
Wed 02:45:00 PM 13.4953 110.5213 209° Southwest  Level Estimated
Wed 02:46:00 PM 13.3954 110.4654 209° Southwest  Level Estimated
Wed 02:47:00 PM 13.2956 110.4095 209° Southwest  Level Estimated
Wed 02:48:00 PM 13.1957 110.3537 209° Southwest  Level Estimated
Wed 02:49:00 PM 13.0958 110.2979 209° Southwest  Level Estimated
Wed 02:50:00 PM 12.9959 110.2421 209° Southwest  Level Estimated
Wed 02:51:00 PM 12.8961 110.1865 209° Southwest  Level Estimated
Wed 02:52:00 PM 12.7961 110.1308 209° Southwest  Level Estimated
Wed 02:53:00 PM 12.6962 110.0752 208° Southwest  Level Estimated
Wed 02:54:00 PM 12.5963 110.0197 208° Southwest  Level Estimated
Wed 02:55:00 PM 12.4963 109.9641 208° Southwest  Level Estimated
Wed 02:56:00 PM 12.3964 109.9087 208° Southwest  Level Estimated
Wed 02:57:00 PM 12.2964 109.8532 208° Southwest  Level Estimated
Wed 02:58:00 PM 12.1964 109.7979 208° Southwest  Level Estimated
Wed 02:59:00 PM 12.0964 109.7425 208° Southwest  Level Estimated
Wed 03:00:00 PM 11.9964 109.6872 208° Southwest  Level Estimated
Wed 03:01:00 PM 11.8964 109.6319 208° Southwest  Level Estimated
Wed 03:02:00 PM 11.7964 109.5767 208° Southwest  Level Estimated
Wed 03:03:00 PM 11.6964 109.5215 208° Southwest  Level Estimated
Wed 03:04:00 PM 11.5963 109.4664 208° Southwest  Level Estimated
Wed 03:05:00 PM 11.4963 109.4113 208° Southwest  Level Estimated
Wed 03:06:00 PM 11.3962 109.3562 208° Southwest  Level Estimated
Wed 03:07:00 PM 11.2961 109.3012 208° Southwest  Level Estimated
Wed 03:08:00 PM 11.1960 109.2462 208° Southwest  Level Estimated
Wed 03:09:00 PM 11.0959 109.1913 208° Southwest  Level Estimated
Wed 03:10:00 PM 10.9958 109.1364 208° Southwest  Level Estimated
Wed 03:11:00 PM 10.8957 109.0815 208° Southwest  Level Estimated
Wed 03:12:00 PM 10.7956 109.0267 208° Southwest  Level Estimated
Wed 03:13:00 PM 10.6954 108.9719 208° Southwest  Level Estimated
Wed 03:14:00 PM 10.5953 108.9171 208° Southwest  Level Estimated
Wed 03:15:00 PM 10.4951 108.8624 208° Southwest  Level Estimated
Wed 03:16:00 PM 10.3949 108.8077 208° Southwest  Level Estimated
Wed 03:17:00 PM 10.2948 108.7530 208° Southwest  Level Estimated
Wed 03:18:00 PM 10.1946 108.6984 208° Southwest  Level Estimated
Wed 03:19:00 PM 10.0944 108.6438 208° Southwest  Level Estimated
Wed 03:20:00 PM 9.9942 108.5893 208° Southwest  Level Estimated
Wed 03:21:00 PM 9.8940 108.5347 208° Southwest  Level Estimated
Wed 03:22:00 PM 9.7938 108.4802 208° Southwest  Level Estimated
Wed 03:23:00 PM 9.6936 108.4258 208° Southwest  Level Estimated
Wed 03:24:00 PM 9.5933 108.3714 208° Southwest  Level Estimated
Wed 03:25:00 PM 9.4931 108.3170 208° Southwest  Level Estimated
Wed 03:26:00 PM 9.3928 108.2626 208° Southwest  Level Estimated
Wed 03:27:00 PM 9.2926 108.2083 208° Southwest  Level Estimated
Wed 03:28:00 PM 9.1923 108.1540 208° Southwest  Level Estimated
Wed 03:29:00 PM 9.0920 108.0997 208° Southwest  Level Estimated
Wed 03:30:00 PM 8.9917 108.0455 208° Southwest  Level Estimated
Wed 03:31:00 PM 8.8914 107.9913 208° Southwest  Level Estimated
Wed 03:32:00 PM 8.7911 107.9371 208° Southwest  Level Estimated
Wed 03:33:00 PM 8.6908 107.8830 208° Southwest  Level Estimated
Wed 03:34:00 PM 8.5905 107.8288 208° Southwest  Level Estimated
Wed 03:35:00 PM 8.4902 107.7747 208° Southwest  Level Estimated
Wed 03:36:00 PM 8.3898 107.7207 208° Southwest  Level Estimated
Wed 03:37:00 PM 8.2895 107.6667 208° Southwest  Level Estimated
Wed 03:38:00 PM 8.1892 107.6127 208° Southwest  Level Estimated
Wed 03:39:00 PM 8.0888 107.5587 208° Southwest  Level Estimated
Wed 03:40:00 PM 7.9885 107.5047 208° Southwest  Level Estimated
Wed 03:41:00 PM 7.8881 107.4508 208° Southwest  Level Estimated
Wed 03:42:00 PM 7.7877 107.3969 208° Southwest  Level Estimated
Wed 03:43:00 PM 7.6873 107.3430 208° Southwest  Level Estimated
Wed 03:44:00 PM 7.5869 107.2892 208° Southwest  Level Estimated
Wed 03:45:00 PM 7.4865 107.2354 208° Southwest  Level Estimated
Wed 03:46:00 PM 7.3861 107.1816 208° Southwest  Level Estimated
Wed 03:47:00 PM 7.2857 107.1278 208° Southwest  Level Estimated
Wed 03:48:00 PM 7.1853 107.0741 208° Southwest  Level Estimated
Wed 03:49:00 PM 7.0849 107.0203 208° Southwest  Level Estimated
Wed 03:50:00 PM 6.9845 106.9666 208° Southwest  Level Estimated
Wed 03:51:00 PM 6.8840 106.9129 208° Southwest  Level Estimated
Wed 03:52:00 PM 6.7836 106.8593 208° Southwest  Level Estimated
Wed 03:53:00 PM 6.6832 106.8057 208° Southwest  Level Estimated
Wed 03:54:00 PM 6.5827 106.7521 208° Southwest  Level Estimated
Wed 03:55:00 PM 6.4823 106.6985 208° Southwest  Level Estimated
Wed 03:56:00 PM 6.3818 106.6449 208° Southwest  Level Estimated
Wed 03:57:00 PM 6.2813 106.5913 208° Southwest  Level Estimated
Wed 03:58:00 PM 6.1809 106.5378 208° Southwest  Level Estimated
Wed 03:59:00 PM 6.0804 106.4843 208° Southwest  Level Estimated
Wed 04:00:00 PM 5.9799 106.4308 208° Southwest  Level Estimated
Wed 04:01:00 PM 5.8794 106.3773 208° Southwest  Level Estimated
Wed 04:02:00 PM 5.7789 106.3239 208° Southwest  Level Estimated
Wed 04:03:00 PM 5.6784 106.2705 208° Southwest  Level Estimated
Wed 04:04:00 PM 5.5779 106.2171 208° Southwest  Level Estimated
Wed 04:05:00 PM 5.4774 106.1637 208° Southwest  Level Estimated
Wed 04:06:00 PM 5.3769 106.1103 208° Southwest  Level Estimated
Wed 04:07:00 PM 5.2764 106.0570 208° Southwest  Level Estimated
Wed 04:08:00 PM 5.1759 106.0036 208° Southwest  Level Estimated
Wed 04:09:00 PM 5.0753 105.9503 208° Southwest  Level Estimated
Wed 04:10:00 PM 4.9748 105.8970 208° Southwest  Level Estimated
Wed 04:11:00 PM 4.8743 105.8437 208° Southwest  Level Estimated
Wed 04:12:00 PM 4.7737 105.7904 208° Southwest  Level Estimated
Wed 04:13:00 PM 4.6732 105.7372 208° Southwest  Level Estimated
Wed 04:14:00 PM 4.5726 105.6839 208° Southwest  Level Estimated
Wed 04:15:00 PM 4.4721 105.6307 208° Southwest  Level Estimated
Wed 04:16:00 PM 4.3715 105.5775 208° Southwest  Level Estimated
Wed 04:17:00 PM 4.2710 105.5243 208° Southwest  Level Estimated
Wed 04:18:00 PM 4.1704 105.4711 208° Southwest  Level Estimated
Wed 04:19:00 PM 4.0698 105.4179 208° Southwest  Level Estimated
Wed 04:20:00 PM 3.9693 105.3648 208° Southwest  Level Estimated
Wed 04:21:00 PM 3.8687 105.3116 208° Southwest  Level Estimated
Wed 04:22:00 PM 3.7681 105.2585 208° Southwest  Level Estimated
Wed 04:23:00 PM 3.6675 105.2054 208° Southwest  Level Estimated
Wed 04:24:00 PM 3.5670 105.1523 208° Southwest  Level Estimated
Wed 04:25:00 PM 3.4664 105.0992 208° Southwest  Level Estimated
Wed 04:26:00 PM 3.3658 105.0461 208° Southwest  Level Estimated
Wed 04:27:00 PM 3.2652 104.9930 208° Southwest  Level Estimated
Wed 04:28:00 PM 3.1646 104.9400 208° Southwest  Level Estimated
Wed 04:29:00 PM 3.0640 104.8869 208° Southwest  Level Estimated
Wed 04:30:00 PM 2.9634 104.8339 208° Southwest  Level Estimated
Wed 04:31:00 PM 2.8628 104.7809 208° Southwest  Level Estimated
Wed 04:32:00 PM 2.7622 104.7278 208° Southwest  Level Estimated
Wed 04:33:00 PM 2.6616 104.6748 208° Southwest  Level Estimated
Wed 04:34:00 PM 2.5610 104.6218 208° Southwest  Level Estimated
Wed 04:35:00 PM 2.4604 104.5688 208° Southwest  Level Estimated
Wed 04:36:00 PM 2.3598 104.5158 208° Southwest  Level Estimated
Wed 04:37:00 PM 2.2591 104.4629 208° Southwest  Level Estimated
Wed 04:38:00 PM 2.1585 104.4099 208° Southwest  Level Estimated
Wed 04:39:00 PM 2.0579 104.3569 208° Southwest  Level Estimated
Wed 04:40:00 PM 1.9573 104.3039 208° Southwest  Level Estimated
Wed 04:41:00 PM 1.8567 104.2510 208° Southwest  Level Estimated
Wed 04:42:00 PM 1.7560 104.1981 208° Southwest  Level Estimated
Wed 04:43:00 PM 1.6554 104.1451 208° Southwest  Level Estimated
Wed 04:44:00 PM 1.5548 104.0922 208° Southwest  Level Estimated
Wed 04:45:00 PM 1.4541 104.0392 208° Southwest  Level Estimated
Wed 04:46:00 PM 1.3557 103.9875 208° Southwest  Level Estimated
Wed 04:47:00 PM 1.3557 103.9875 214° Southwest  Level Estimated
Wed 04:48:00 PM 1.3557 103.9875 214° Southwest  Level Estimated
Wed 04:49:00 PM 1.3557 103.9875 214° Southwest  Level Estimated
Wed 04:50:00 PM 1.3557 103.9875 214° Southwest  Level Estimated
Wed 04:51:00 PM 1.3557 103.9875 214° Southwest  Level Estimated
Wed 04:52:00 PM 1.3557 103.9875 214° Southwest  Level Estimated
Wed 04:53:00 PM 1.3557 103.9875 214° Southwest  Level Estimated
Wed 04:54:00 PM 1.3557 103.9875 214° Southwest  Level Estimated
Wed 04:55:00 PM 1.3557 103.9875 214° Southwest  Level Estimated
Wed 04:56:00 PM 1.3557 103.9875 214° Southwest  Level Estimated
Wed 04:57:00 PM 1.3557 103.9875 214° Southwest  Level Estimated
Wed 04:58:00 PM 1.3557 103.9875 214° Southwest  Level Estimated
Wed 04:59:00 PM 1.3557 103.9875 214° Southwest  Level Estimated
Wed 05:00:00 PM 1.3557 103.9875 214° Southwest  Level Estimated

Login

Don't have an account? Register now (free) for customized features, flight alerts, and more!